Time;durP1;ratioP1;P1;durP2;ratioP2;P2;SDS_P1;SDS_P2;PMS_P1;PMS_P2;Temp;Humidity;BMP_temperature;BMP_pressure;BME280_temperature;BME280_humidity;BME280_pressure;Samples;Min_cycle;Max_cycle;Signal;HPM_P1;HPM_P2
2022/05/15 00:02:36;;;;;;;;;;;;;;;;;;4941107;28;105902;-65
2022/05/15 00:05:02;;;;;;;;;;;;;;;;;;4925021;28;136818;-64
2022/05/15 00:07:29;;;;;;;;;;;;;;;;;;4930542;28;113056;-65
2022/05/15 00:09:55;;;;;;;;;;;;;;;;;;4931546;28;106818;-64
2022/05/15 00:12:22;;;;;;;;;;;;;;;;;;4927998;28;137721;-65
2022/05/15 00:14:48;;;;;;;;;;;;;;;;;;4935137;28;105914;-64
2022/05/15 00:17:14;;;;;;;;;;;;;;;;;;4939695;28;135749;-64
2022/05/15 00:19:40;;;;;;;;;;;;;;;;;;4943747;28;106802;-64
2022/05/15 00:22:07;;;;;;;;;;;;;;;;;;4926616;28;137718;-64
2022/05/15 00:24:34;;;;;;;;;;;;;;;;;;4924123;28;123082;-63
2022/05/15 00:27:00;;;;;;;;;;;;;;;;;;4931625;28;123046;-64
2022/05/15 00:29:26;;;;;;;;;;;;;;;;;;4935509;28;108426;-63
2022/05/15 00:31:53;;;;;;;;;;;;;;;;;;4919166;28;106569;-65
2022/05/15 00:34:19;;;;;;;;;;;;;;;;;;4946970;28;105838;-64
2022/05/15 00:36:45;;;;;;;;;;;;;;;;;;4922238;28;133871;-63
2022/05/15 00:39:12;;;;;;;;;;;;;;;;;;4924735;28;124381;-62
2022/05/15 00:41:38;;;;;;;;;;;;;;;;;;4933519;28;135112;-65
2022/05/15 00:44:04;;;;;;;;;;;;;;;;;;4926619;28;137387;-65
2022/05/15 00:46:31;;;;;;;;;;;;;;;;;;4933155;28;122757;-64
2022/05/15 00:48:57;;;;;;;;;;;;;;;;;;4928149;28;134960;-66
2022/05/15 00:51:24;;;;;;;;;;;;;;;;;;4927826;28;133434;-65
2022/05/15 00:53:50;;;;;;;;;;;;;;;;;;4921617;28;107421;-65
2022/05/15 00:56:16;;;;;;;;;;;;;;;;;;4928536;28;123587;-63
2022/05/15 00:58:42;;;;;;;;;;;;;;;;;;4963195;28;116108;-64
2022/05/15 01:01:09;;;;;;;;;;;;;;;;;;4925922;28;136852;-65
2022/05/15 01:03:35;;;;;;;;;;;;;;;;;;4929860;28;137010;-65
2022/05/15 01:06:01;;;;;;;;;;;;;;;;;;4927232;28;120671;-65
2022/05/15 01:08:30;;;;;;;;;;;;;;;;;;4931072;28;109358;-63
2022/05/15 01:10:58;;;;;;;;;;;;;;;;;;4928958;28;108330;-65
2022/05/15 01:13:27;;;;;;;;;;;;;;;;;;4948396;28;108400;-65
2022/05/15 01:15:54;;;;;;;;;;;;;;;;;;4925529;28;126853;-63
2022/05/15 01:18:21;;;;;;;;;;;;;;;;;;4929761;28;135546;-64
2022/05/15 01:20:47;;;;;;;;;;;;;;;;;;4941577;28;108447;-66
2022/05/15 01:23:15;;;;;;;;;;;;;;;;;;4928172;28;122764;-64
2022/05/15 01:25:41;;;;;;;;;;;;;;;;;;4962382;28;106275;-64
2022/05/15 01:28:08;;;;;;;;;;;;;;;;;;4927897;28;133416;-65
2022/05/15 01:30:35;;;;;;;;;;;;;;;;;;4924879;28;108645;-64
2022/05/15 01:33:02;;;;;;;;;;;;;;;;;;4950286;28;108361;-63
2022/05/15 01:35:28;;;;;;;;;;;;;;;;;;4925619;28;108421;-64
2022/05/15 01:37:59;;;;;;;;;;;;;;;;;;4918414;28;108024;-64
2022/05/15 01:40:25;;;;;;;;;;;;;;;;;;4940462;28;106604;-64
2022/05/15 01:42:52;;;;;;;;;;;;;;;;;;4927607;28;129812;-64
2022/05/15 01:45:18;;;;;;;;;;;;;;;;;;4958438;28;106439;-63
2022/05/15 01:47:45;;;;;;;;;;;;;;;;;;4927396;28;106386;-63
2022/05/15 01:50:11;;;;;;;;;;;;;;;;;;4929762;28;108762;-63
2022/05/15 01:52:38;;;;;;;;;;;;;;;;;;4958941;28;122362;-64
2022/05/15 01:55:04;;;;;;;;;;;;;;;;;;4925302;28;136264;-64
2022/05/15 01:57:30;;;;;;;;;;;;;;;;;;4944716;28;138128;-63
2022/05/15 01:59:58;;;;;;;;;;;;;;;;;;4937091;28;106373;-63
2022/05/15 02:02:24;;;;;;;;;;;;;;;;;;4960877;28;106660;-64
2022/05/15 02:04:50;;;;;;;;;;;;;;;;;;4921698;28;123066;-62
2022/05/15 02:07:17;;;;;;;;;;;;;;;;;;4937358;28;136399;-63
2022/05/15 02:09:44;;;;;;;;;;;;;;;;;;4949844;28;108741;-63
2022/05/15 02:12:10;;;;;;;;;;;;;;;;;;4934270;28;107497;-63
2022/05/15 02:14:37;;;;;;;;;;;;;;;;;;4931356;28;108730;-63
2022/05/15 02:17:03;;;;;;;;;;;;;;;;;;4925197;28;134297;-63
2022/05/15 02:19:32;;;;;;;;;;;;;;;;;;4962822;28;106838;-63
2022/05/15 02:21:59;;;;;;;;;;;;;;;;;;4927377;28;109321;-63
2022/05/15 02:24:25;;;;;;;;;;;;;;;;;;4930259;28;108535;-63
2022/05/15 02:26:52;;;;;;;;;;;;;;;;;;4930305;28;138462;-64
2022/05/15 02:29:19;;;;;;;;;;;;;;;;;;4935253;28;108749;-64
2022/05/15 02:31:45;;;;;;;;;;;;;;;;;;4944519;28;118097;-63
2022/05/15 02:34:11;;;;;;;;;;;;;;;;;;4927982;28;135952;-64
2022/05/15 02:36:38;;;;;;;;;;;;;;;;;;4952418;28;107617;-64
2022/05/15 02:39:04;;;;;;;;;;;;;;;;;;4944084;28;110491;-64
2022/05/15 02:41:31;;;;;;;;;;;;;;;;;;4917654;28;135260;-64
2022/05/15 02:43:58;;;;;;;;;;;;;;;;;;4927649;28;108448;-64
2022/05/15 02:46:24;;;;;;;;;;;;;;;;;;4932962;28;107755;-64
2022/05/15 02:51:35;;;;;;;;;;;;;;;;;;4959173;28;106635;-65
2022/05/15 02:54:02;;;;;;;;;;;;;;;;;;4934702;28;107850;-64
2022/05/15 02:56:28;;;;;;;;;;;;;;;;;;4926502;28;118104;-64
2022/05/15 02:58:57;;;;;;;;;;;;;;;;;;4943948;28;122777;-63
2022/05/15 03:01:24;;;;;;;;;;;;;;;;;;4942652;28;108054;-64
2022/05/15 03:03:50;;;;;;;;;;;;;;;;;;4930106;28;135461;-63
2022/05/15 03:06:17;;;;;;;;;;;;;;;;;;4939810;28;108728;-64
2022/05/15 03:08:43;;;;;;;;;;;;;;;;;;4932301;28;135671;-64
2022/05/15 03:11:09;;;;;;;;;;;;;;;;;;4937525;28;106601;-63
2022/05/15 03:13:36;;;;;;;;;;;;;;;;;;4928787;28;135732;-64
2022/05/15 03:16:02;;;;;;;;;;;;;;;;;;4945692;28;120697;-64
2022/05/15 03:18:28;;;;;;;;;;;;;;;;;;4928861;28;117234;-64
2022/05/15 03:20:54;;;;;;;;;;;;;;;;;;4931040;28;129869;-64
2022/05/15 03:23:21;;;;;;;;;;;;;;;;;;4932289;28;134334;-66
2022/05/15 03:25:47;;;;;;;;;;;;;;;;;;4933598;28;121160;-63
2022/05/15 03:28:13;;;;;;;;;;;;;;;;;;4932037;28;108225;-64
2022/05/15 03:30:40;;;;;;;;;;;;;;;;;;4943182;28;114444;-63
2022/05/15 03:33:08;;;;;;;;;;;;;;;;;;4931809;28;136112;-64
2022/05/15 03:35:34;;;;;;;;;;;;;;;;;;4933553;28;109606;-65
2022/05/15 03:38:01;;;;;;;;;;;;;;;;;;4931921;28;123157;-63
2022/05/15 03:40:27;;;;;;;;;;;;;;;;;;4967449;28;108137;-64
2022/05/15 03:42:53;;;;;;;;;;;;;;;;;;4931122;28;108791;-64
2022/05/15 03:45:20;;;;;;;;;;;;;;;;;;4934815;28;107263;-66
2022/05/15 03:47:46;;;;;;;;;;;;;;;;;;4944433;28;106842;-63
2022/05/15 03:50:13;;;;;;;;;;;;;;;;;;4934562;28;109042;-63
2022/05/15 03:52:39;;;;;;;;;;;;;;;;;;4929494;28;129750;-64
2022/05/15 03:55:06;;;;;;;;;;;;;;;;;;4937850;28;119377;-64
2022/05/15 03:57:32;;;;;;;;;;;;;;;;;;4926134;28;121984;-64
2022/05/15 03:59:58;;;;;;;;;;;;;;;;;;4940010;28;107088;-63
2022/05/15 04:02:25;;;;;;;;;;;;;;;;;;4939113;28;136757;-64
2022/05/15 04:04:51;;;;;;;;;;;;;;;;;;4946543;28;121322;-63
2022/05/15 04:07:17;;;;;;;;;;;;;;;;;;4928829;28;135955;-65
2022/05/15 04:09:44;;;;;;;;;;;;;;;;;;4929322;28;137298;-64
2022/05/15 04:12:11;;;;;;;;;;;;;;;;;;4946768;28;113908;-64
2022/05/15 04:14:38;;;;;;;;;;;;;;;;;;4926567;28;108429;-64
2022/05/15 04:17:04;;;;;;;;;;;;;;;;;;4934415;28;110329;-64
2022/05/15 04:19:31;;;;;;;;;;;;;;;;;;4930035;28;136700;-64
2022/05/15 04:22:02;;;;;;;;;;;;;;;;;;4944993;28;130379;-64
2022/05/15 04:24:28;;;;;;;;;;;;;;;;;;4941150;28;111007;-64
2022/05/15 04:26:55;;;;;;;;;;;;;;;;;;4927527;28;135912;-64
2022/05/15 04:29:21;;;;;;;;;;;;;;;;;;4945999;28;133410;-66
2022/05/15 04:31:47;;;;;;;;;;;;;;;;;;4932646;28;105829;-63
2022/05/15 04:34:14;;;;;;;;;;;;;;;;;;4934691;28;107220;-63
2022/05/15 04:36:40;;;;;;;;;;;;;;;;;;4931331;28;125443;-64
2022/05/15 04:39:06;;;;;;;;;;;;;;;;;;4932552;28;138008;-63
2022/05/15 04:41:32;;;;;;;;;;;;;;;;;;4945673;28;107359;-63
2022/05/15 04:43:59;;;;;;;;;;;;;;;;;;4941844;28;123264;-63
2022/05/15 04:46:27;;;;;;;;;;;;;;;;;;4930724;28;128256;-63
2022/05/15 04:48:53;;;;;;;;;;;;;;;;;;4929627;28;137735;-64
2022/05/15 04:51:20;;;;;;;;;;;;;;;;;;4921951;28;123820;-62
2022/05/15 04:53:46;;;;;;;;;;;;;;;;;;4931252;28;130349;-64
2022/05/15 04:56:12;;;;;;;;;;;;;;;;;;4934036;28;106438;-63
2022/05/15 04:58:38;;;;;;;;;;;;;;;;;;4939485;28;137680;-62
2022/05/15 05:01:05;;;;;;;;;;;;;;;;;;4929303;28;135573;-63
2022/05/15 05:03:31;;;;;;;;;;;;;;;;;;4927968;28;121555;-62
2022/05/15 05:05:57;;;;;;;;;;;;;;;;;;4931010;28;131818;-63
2022/05/15 05:08:24;;;;;;;;;;;;;;;;;;4928993;28;136525;-65
2022/05/15 05:10:50;;;;;;;;;;;;;;;;;;4919587;28;106670;-64
2022/05/15 05:13:16;;;;;;;;;;;;;;;;;;4926809;28;133280;-63
2022/05/15 05:15:42;;;;;;;;;;;;;;;;;;4925264;28;137880;-64
2022/05/15 05:18:09;;;;;;;;;;;;;;;;;;4930293;28;135748;-64
2022/05/15 05:20:35;;;;;;;;;;;;;;;;;;4927462;28;135859;-64
2022/05/15 05:23:01;;;;;;;;;;;;;;;;;;4929033;28;120873;-63
2022/05/15 05:25:27;;;;;;;;;;;;;;;;;;4930577;28;117525;-63
2022/05/15 05:27:54;;;;;;;;;;;;;;;;;;4928391;28;137131;-63
2022/05/15 05:30:20;;;;;;;;;;;;;;;;;;4926236;28;123832;-65
2022/05/15 05:32:46;;;;;;;;;;;;;;;;;;4921475;28;119717;-65
2022/05/15 05:35:12;;;;;;;;;;;;;;;;;;4926335;28;136906;-65
2022/05/15 05:37:39;;;;;;;;;;;;;;;;;;4930558;28;122972;-64
2022/05/15 05:40:05;;;;;;;;;;;;;;;;;;4931676;28;137594;-65
2022/05/15 05:42:31;;;;;;;;;;;;;;;;;;4923048;28;106191;-64
2022/05/15 05:44:58;;;;;;;;;;;;;;;;;;4928042;28;135760;-64
2022/05/15 05:47:24;;;;;;;;;;;;;;;;;;4924322;28;136374;-64
2022/05/15 05:49:50;;;;;;;;;;;;;;;;;;4929922;28;126186;-64
2022/05/15 05:52:16;;;;;;;;;;;;;;;;;;4924500;28;136376;-64
2022/05/15 05:54:43;;;;;;;;;;;;;;;;;;4922071;28;135767;-64
2022/05/15 05:57:09;;;;;;;;;;;;;;;;;;4926942;28;121931;-64
2022/05/15 05:59:35;;;;;;;;;;;;;;;;;;4930263;28;122771;-64
2022/05/15 06:02:01;;;;;;;;;;;;;;;;;;4922222;28;122215;-63
2022/05/15 06:04:41;;;;;;;;;;;;;;;;;;4925184;28;126329;-64
2022/05/15 06:07:08;;;;;;;;;;;;;;;;;;4920408;28;107709;-64
2022/05/15 06:09:34;;;;;;;;;;;;;;;;;;4927421;28;121838;-64
2022/05/15 06:12:04;;;;;;;;;;;;;;;;;;4922632;28;136370;-65
2022/05/15 06:14:31;;;;;;;;;;;;;;;;;;4925617;28;136367;-64
2022/05/15 06:16:57;;;;;;;;;;;;;;;;;;4924071;28;106383;-64
2022/05/15 06:19:23;;;;;;;;;;;;;;;;;;4926456;28;135259;-64
2022/05/15 06:21:49;;;;;;;;;;;;;;;;;;4926249;28;125883;-64
2022/05/15 06:24:16;;;;;;;;;;;;;;;;;;4928224;28;135924;-64
2022/05/15 06:26:42;;;;;;;;;;;;;;;;;;4921664;28;107663;-64
2022/05/15 06:29:08;;;;;;;;;;;;;;;;;;4928517;28;122899;-64
2022/05/15 06:31:35;;;;;;;;;;;;;;;;;;4928086;28;137353;-64
2022/05/15 06:34:01;;;;;;;;;;;;;;;;;;4927152;28;137567;-64
2022/05/15 06:36:27;;;;;;;;;;;;;;;;;;4926145;28;106269;-64
2022/05/15 06:38:53;;;;;;;;;;;;;;;;;;4929761;28;134631;-64
2022/05/15 06:41:20;;;;;;;;;;;;;;;;;;4916692;28;137130;-64
2022/05/15 06:43:46;;;;;;;;;;;;;;;;;;4931256;28;120843;-64
2022/05/15 06:46:13;;;;;;;;;;;;;;;;;;4916845;28;129260;-64
2022/05/15 06:48:39;;;;;;;;;;;;;;;;;;4918479;28;123293;-64
2022/05/15 06:51:05;;;;;;;;;;;;;;;;;;4924576;28;137692;-64
2022/05/15 06:53:32;;;;;;;;;;;;;;;;;;4921616;28;127539;-64
2022/05/15 06:58:43;;;;;;;;;;;;;;;;;;4921295;28;136465;-64
2022/05/15 07:01:10;;;;;;;;;;;;;;;;;;4915552;28;137394;-64
2022/05/15 07:03:36;;;;;;;;;;;;;;;;;;4931773;28;124653;-64
2022/05/15 07:06:02;;;;;;;;;;;;;;;;;;4925225;28;135674;-64
2022/05/15 07:08:28;;;;;;;;;;;;;;;;;;4920171;28;109470;-64
2022/05/15 07:10:55;;;;;;;;;;;;;;;;;;4924677;28;135343;-64
2022/05/15 07:13:21;;;;;;;;;;;;;;;;;;4929251;28;138012;-65
2022/05/15 07:15:47;;;;;;;;;;;;;;;;;;4923765;28;123543;-64
2022/05/15 07:18:14;;;;;;;;;;;;;;;;;;4925799;28;137132;-65
2022/05/15 07:20:41;;;;;;;;;;;;;;;;;;4924381;28;136959;-68
2022/05/15 07:23:07;;;;;;;;;;;;;;;;;;4925170;28;121061;-69
2022/05/15 07:25:33;;;;;;;;;;;;;;;;;;4927001;28;121803;-69
2022/05/15 07:28:00;;;;;;;;;;;;;;;;;;4928551;28;126168;-69
2022/05/15 07:30:26;;;;;;;;;;;;;;;;;;4925886;28;131668;-69
2022/05/15 07:32:52;;;;;;;;;;;;;;;;;;4926706;28;136867;-68
2022/05/15 07:35:19;;;;;;;;;;;;;;;;;;4927713;28;122136;-68
2022/05/15 07:37:48;;;;;;;;;;;;;;;;;;4942218;28;107123;-68
2022/05/15 07:40:14;;;;;;;;;;;;;;;;;;4935000;28;123426;-69
2022/05/15 07:42:43;;;;;;;;;;;;;;;;;;4930665;28;120380;-68
2022/05/15 07:45:09;;;;;;;;;;;;;;;;;;4928594;28;135959;-69
2022/05/15 07:47:36;;;;;;;;;;;;;;;;;;4933440;28;135759;-68
2022/05/15 07:50:02;;;;;;;;;;;;;;;;;;4938502;28;122293;-68
2022/05/15 07:52:28;;;;;;;;;;;;;;;;;;4927651;28;106779;-68
2022/05/15 07:54:55;;;;;;;;;;;;;;;;;;4926827;28;110432;-68
2022/05/15 07:57:21;;;;;;;;;;;;;;;;;;4929920;28;132649;-68
2022/05/15 07:59:47;;;;;;;;;;;;;;;;;;4928597;28;135789;-68
2022/05/15 08:02:13;;;;;;;;;;;;;;;;;;4933249;28;121987;-67
2022/05/15 08:10:12;;;;;;;;;;;;;;;;;;4940145;28;106600;-69
2022/05/15 08:12:38;;;;;;;;;;;;;;;;;;4917973;28;135770;-68
2022/05/15 08:15:05;;;;;;;;;;;;;;;;;;4922819;28;122139;-68
2022/05/15 08:17:31;;;;;;;;;;;;;;;;;;4935047;28;135108;-69
2022/05/15 08:25:28;;;;;;;;;;;;;;;;;;4930757;28;134762;-68
2022/05/15 08:27:54;;;;;;;;;;;;;;;;;;4934059;28;134362;-67
2022/05/15 08:30:21;;;;;;;;;;;;;;;;;;4943503;28;123244;-69
2022/05/15 08:32:47;;;;;;;;;;;;;;;;;;4928724;28;136995;-68
2022/05/15 08:35:13;;;;;;;;;;;;;;;;;;4924998;28;121915;-67
2022/05/15 08:37:42;;;;;;;;;;;;;;;;;;4933213;28;136760;-68
2022/05/15 08:40:08;;;;;;;;;;;;;;;;;;4928914;28;136063;-68
2022/05/15 08:42:34;;;;;;;;;;;;;;;;;;4945977;28;124464;-68
2022/05/15 08:45:00;;;;;;;;;;;;;;;;;;4926321;28;136811;-68
2022/05/15 08:47:27;;;;;;;;;;;;;;;;;;4919539;28;125976;-72
2022/05/15 08:49:53;;;;;;;;;;;;;;;;;;4925694;28;107617;-67
2022/05/15 08:52:19;;;;;;;;;;;;;;;;;;4928517;28;129163;-68
2022/05/15 08:54:45;;;;;;;;;;;;;;;;;;4931685;28;136290;-68
2022/05/15 08:57:14;;;;;;;;;;;;;;;;;;4924031;28;113643;-71
2022/05/15 08:59:40;;;;;;;;;;;;;;;;;;4929675;28;138124;-70
2022/05/15 09:02:06;;;;;;;;;;;;;;;;;;4930250;28;107476;-68
2022/05/15 09:04:33;;;;;;;;;;;;;;;;;;4934018;28;108277;-68
2022/05/15 09:06:59;;;;;;;;;;;;;;;;;;4930065;28;136100;-68
2022/05/15 09:09:25;;;;;;;;;;;;;;;;;;4931745;28;110528;-67
2022/05/15 09:11:52;;;;;;;;;;;;;;;;;;4928722;28;137530;-67
2022/05/15 09:14:18;;;;;;;;;;;;;;;;;;4933921;28;133044;-65
2022/05/15 09:16:44;;;;;;;;;;;;;;;;;;4930513;28;137747;-65
2022/05/15 09:19:12;;;;;;;;;;;;;;;;;;4917524;28;135897;-66
2022/05/15 09:21:38;;;;;;;;;;;;;;;;;;4929251;28;121949;-64
2022/05/15 09:24:04;;;;;;;;;;;;;;;;;;4930652;28;136655;-68
2022/05/15 09:26:31;;;;;;;;;;;;;;;;;;4920373;28;137041;-68
2022/05/15 09:29:05;;;;;;;;;;;;;;;;;;4936628;28;122638;-68
2022/05/15 09:31:33;;;;;;;;;;;;;;;;;;4922730;28;112179;-67
2022/05/15 09:33:59;;;;;;;;;;;;;;;;;;4928567;28;135832;-67
2022/05/15 09:36:26;;;;;;;;;;;;;;;;;;4927910;28;123366;-66
2022/05/15 09:38:52;;;;;;;;;;;;;;;;;;4920861;28;135985;-66
2022/05/15 09:44:03;;;;;;;;;;;;;;;;;;4930439;28;135917;-68
2022/05/15 09:46:30;;;;;;;;;;;;;;;;;;4928005;28;134059;-69
2022/05/15 09:48:56;;;;;;;;;;;;;;;;;;4927593;28;121413;-68
2022/05/15 09:51:22;;;;;;;;;;;;;;;;;;4941649;28;122584;-68
2022/05/15 09:53:49;;;;;;;;;;;;;;;;;;4930716;28;134416;-69
2022/05/15 09:56:15;;;;;;;;;;;;;;;;;;4927514;28;124759;-69
2022/05/15 09:58:41;;;;;;;;;;;;;;;;;;4931804;28;126262;-68
2022/05/15 10:01:07;;;;;;;;;;;;;;;;;;4940821;28;123696;-67
2022/05/15 10:03:34;;;;;;;;;;;;;;;;;;4931211;28;127277;-69
2022/05/15 10:06:01;;;;;;;;;;;;;;;;;;4932614;28;138083;-69
2022/05/15 10:08:28;;;;;;;;;;;;;;;;;;4928622;28;122201;-69
2022/05/15 10:10:54;;;;;;;;;;;;;;;;;;4932821;28;130594;-67
2022/05/15 10:13:21;;;;;;;;;;;;;;;;;;4929557;28;136232;-70
2022/05/15 10:15:47;;;;;;;;;;;;;;;;;;4925739;28;108580;-70
2022/05/15 10:18:14;;;;;;;;;;;;;;;;;;4942441;28;135698;-66
2022/05/15 10:20:40;;;;;;;;;;;;;;;;;;4934581;28;133662;-69
2022/05/15 10:23:07;;;;;;;;;;;;;;;;;;4922031;28;127449;-67
2022/05/15 10:25:34;;;;;;;;;;;;;;;;;;4928940;28;137503;-70
2022/05/15 10:28:00;;;;;;;;;;;;;;;;;;4928667;28;107778;-68
2022/05/15 10:30:26;;;;;;;;;;;;;;;;;;4923363;28;137402;-68
2022/05/15 10:32:52;;;;;;;;;;;;;;;;;;4923708;28;136917;-68
2022/05/15 10:35:19;;;;;;;;;;;;;;;;;;4923390;28;117625;-68
2022/05/15 10:37:46;;;;;;;;;;;;;;;;;;4918286;28;134979;-68
2022/05/15 10:40:12;;;;;;;;;;;;;;;;;;4921064;28;135533;-68
2022/05/15 10:42:39;;;;;;;;;;;;;;;;;;4956669;28;121529;-68
2022/05/15 10:45:05;;;;;;;;;;;;;;;;;;4923767;28;137318;-68
2022/05/15 10:47:32;;;;;;;;;;;;;;;;;;4927330;28;125330;-69
2022/05/15 10:49:58;;;;;;;;;;;;;;;;;;4928038;28;130390;-71
2022/05/15 10:52:24;;;;;;;;;;;;;;;;;;4922862;28;137437;-67
2022/05/15 10:57:35;;;;;;;;;;;;;;;;;;4925947;28;115983;-71
2022/05/15 11:00:02;;;;;;;;;;;;;;;;;;4935143;28;136599;-69
2022/05/15 11:02:28;;;;;;;;;;;;;;;;;;4928852;28;111258;-69
2022/05/15 11:04:54;;;;;;;;;;;;;;;;;;4926391;28;137085;-68
2022/05/15 11:07:22;;;;;;;;;;;;;;;;;;4927433;28;108820;-69
2022/05/15 11:09:48;;;;;;;;;;;;;;;;;;4931666;28;131998;-69
2022/05/15 11:12:34;;;;;;;;;;;;;;;;;;4933957;28;107251;-69
2022/05/15 11:15:01;;;;;;;;;;;;;;;;;;4931264;28;122829;-69
2022/05/15 11:17:27;;;;;;;;;;;;;;;;;;4931058;28;108122;-70
2022/05/15 11:19:55;;;;;;;;;;;;;;;;;;4932436;28;108087;-70
2022/05/15 11:22:21;;;;;;;;;;;;;;;;;;4930763;28;122858;-70
2022/05/15 11:24:47;;;;;;;;;;;;;;;;;;4934991;28;136257;-68
2022/05/15 11:27:15;;;;;;;;;;;;;;;;;;4937320;28;121935;-70
2022/05/15 11:29:42;;;;;;;;;;;;;;;;;;4929908;28;138925;-70
2022/05/15 11:32:08;;;;;;;;;;;;;;;;;;4935574;28;132684;-70
2022/05/15 11:34:34;;;;;;;;;;;;;;;;;;4931025;28;128070;-70
2022/05/15 11:37:00;;;;;;;;;;;;;;;;;;4934030;28;139151;-70
2022/05/15 11:39:27;;;;;;;;;;;;;;;;;;4924424;28;137100;-70
2022/05/15 11:42:08;;;;;;;;;;;;;;;;;;4938847;28;122433;-70
2022/05/15 11:44:35;;;;;;;;;;;;;;;;;;4929926;28;136367;-70
2022/05/15 11:47:01;;;;;;;;;;;;;;;;;;4934945;28;136882;-70
2022/05/15 11:49:27;;;;;;;;;;;;;;;;;;4931057;28;136640;-70
2022/05/15 11:51:53;;;;;;;;;;;;;;;;;;4931062;28;136744;-69
2022/05/15 11:54:20;;;;;;;;;;;;;;;;;;4941349;28;124857;-70
2022/05/15 11:56:46;;;;;;;;;;;;;;;;;;4933559;28;131637;-69
2022/05/15 11:59:12;;;;;;;;;;;;;;;;;;4928739;28;127405;-69
2022/05/15 12:01:39;;;;;;;;;;;;;;;;;;4948601;28;108145;-69
2022/05/15 12:04:07;;;;;;;;;;;;;;;;;;4928051;28;136373;-69
2022/05/15 12:06:33;;;;;;;;;;;;;;;;;;4926817;28;129858;-68
2022/05/15 12:08:59;;;;;;;;;;;;;;;;;;4922662;28;121386;-69
2022/05/15 12:11:26;;;;;;;;;;;;;;;;;;4916383;28;109206;-69
2022/05/15 12:13:54;;;;;;;;;;;;;;;;;;4918437;28;123326;-68
2022/05/15 12:16:20;;;;;;;;;;;;;;;;;;4915796;28;137869;-69
2022/05/15 12:18:47;;;;;;;;;;;;;;;;;;4924575;28;129242;-68
2022/05/15 12:21:13;;;;;;;;;;;;;;;;;;4923960;28;123049;-67
2022/05/15 12:24:26;;;;;;;;;;;;;;;;;;4917544;28;137702;-68
2022/05/15 12:26:25;;;;;;;;;;;;;;;;;;4922530;28;111163;-67
2022/05/15 12:28:52;;;;;;;;;;;;;;;;;;4922559;28;123186;-67
2022/05/15 12:31:18;;;;;;;;;;;;;;;;;;4925262;28;136539;-67
2022/05/15 12:34:01;;;;;;;;;;;;;;;;;;4922666;28;123055;-67
2022/05/15 12:36:27;;;;;;;;;;;;;;;;;;4916478;28;137839;-68
2022/05/15 12:38:54;;;;;;;;;;;;;;;;;;4938160;28;139693;-67
2022/05/15 12:41:20;;;;;;;;;;;;;;;;;;4920976;28;122637;-67
2022/05/15 12:43:49;;;;;;;;;;;;;;;;;;4950171;28;138138;-70
2022/05/15 12:46:15;;;;;;;;;;;;;;;;;;4927144;28;126265;-67
2022/05/15 12:48:41;;;;;;;;;;;;;;;;;;4928104;28;122575;-71
2022/05/15 12:51:09;;;;;;;;;;;;;;;;;;4925060;28;139475;-67
2022/05/15 12:53:35;;;;;;;;;;;;;;;;;;4930491;28;122450;-68
2022/05/15 12:56:02;;;;;;;;;;;;;;;;;;4931409;28;120447;-67
2022/05/15 12:58:28;;;;;;;;;;;;;;;;;;4926992;28;138671;-68
2022/05/15 13:00:55;;;;;;;;;;;;;;;;;;4926672;28;122134;-68
2022/05/15 13:03:21;;;;;;;;;;;;;;;;;;4926725;28;137906;-69
2022/05/15 13:05:47;;;;;;;;;;;;;;;;;;4921109;28;138505;-65
2022/05/15 13:08:13;;;;;;;;;;;;;;;;;;4928467;28;108866;-66
2022/05/15 13:10:40;;;;;;;;;;;;;;;;;;4925980;28;136816;-67
2022/05/15 13:13:08;;;;;;;;;;;;;;;;;;4918663;28;123353;-67
2022/05/15 13:15:39;;;;;;;;;;;;;;;;;;4929198;28;123435;-67
2022/05/15 13:18:06;;;;;;;;;;;;;;;;;;4924259;28;138944;-69
2022/05/15 13:20:32;;;;;;;;;;;;;;;;;;4916571;28;123131;-67
2022/05/15 13:22:59;;;;;;;;;;;;;;;;;;4924543;28;125142;-67
2022/05/15 13:25:26;;;;;;;;;;;;;;;;;;4923994;28;134295;-68
2022/05/15 13:27:52;;;;;;;;;;;;;;;;;;4920375;28;125265;-65
2022/05/15 13:30:18;;;;;;;;;;;;;;;;;;4926025;28;130934;-67
2022/05/15 13:32:45;;;;;;;;;;;;;;;;;;4927216;28;136042;-65
2022/05/15 13:35:11;;;;;;;;;;;;;;;;;;4925171;28;122025;-65
2022/05/15 13:37:38;;;;;;;;;;;;;;;;;;4921833;28;134093;-66
2022/05/15 13:43:20;;;;;;;;;;;;;;;;;;4923760;28;110083;-67
2022/05/15 13:45:46;;;;;;;;;;;;;;;;;;4925896;28;139000;-70
2022/05/15 13:48:13;;;;;;;;;;;;;;;;;;4928818;28;122499;-70
2022/05/15 13:50:42;;;;;;;;;;;;;;;;;;4923187;28;134063;-69
2022/05/15 13:53:08;;;;;;;;;;;;;;;;;;4924489;28;109465;-71
2022/05/15 13:55:34;;;;;;;;;;;;;;;;;;4928977;28;125123;-71
2022/05/15 13:58:01;;;;;;;;;;;;;;;;;;4933575;28;124267;-70
2022/05/15 14:00:27;;;;;;;;;;;;;;;;;;4921944;28;123339;-71
2022/05/15 14:02:54;;;;;;;;;;;;;;;;;;4918801;28;136829;-67
2022/05/15 14:05:20;;;;;;;;;;;;;;;;;;4936977;28;138047;-70
2022/05/15 14:07:47;;;;;;;;;;;;;;;;;;4936302;28;118510;-70
2022/05/15 14:10:13;;;;;;;;;;;;;;;;;;4928917;28;133542;-70
2022/05/15 14:12:39;;;;;;;;;;;;;;;;;;4916576;28;133402;-70
2022/05/15 14:15:07;;;;;;;;;;;;;;;;;;4916774;28;125454;-70
2022/05/15 14:17:33;;;;;;;;;;;;;;;;;;4930254;28;132815;-70
2022/05/15 14:20:00;;;;;;;;;;;;;;;;;;4922482;28;111480;-69
2022/05/15 14:22:32;;;;;;;;;;;;;;;;;;4917633;28;117422;-69
2022/05/15 14:24:58;;;;;;;;;;;;;;;;;;4921500;28;107996;-69
2022/05/15 14:27:25;;;;;;;;;;;;;;;;;;4918586;28;125965;-70
2022/05/15 14:29:51;;;;;;;;;;;;;;;;;;4926029;28;138575;-70
2022/05/15 14:32:17;;;;;;;;;;;;;;;;;;4927991;28;133804;-69
2022/05/15 14:34:44;;;;;;;;;;;;;;;;;;4922230;28;124655;-68
2022/05/15 14:37:10;;;;;;;;;;;;;;;;;;4924008;28;136051;-74
2022/05/15 14:39:37;;;;;;;;;;;;;;;;;;4920014;28;133627;-70
2022/05/15 14:42:03;;;;;;;;;;;;;;;;;;4924612;28;117980;-67
2022/05/15 14:44:30;;;;;;;;;;;;;;;;;;4919249;28;138813;-69
2022/05/15 14:46:56;;;;;;;;;;;;;;;;;;4937113;28;125649;-68
2022/05/15 14:49:22;;;;;;;;;;;;;;;;;;4927934;28;110099;-68
2022/05/15 14:51:55;;;;;;;;;;;;;;;;;;4958098;28;110758;-69
2022/05/15 14:54:24;;;;;;;;;;;;;;;;;;4932149;28;124805;-70
2022/05/15 14:56:50;;;;;;;;;;;;;;;;;;4935392;28;138707;-69
2022/05/15 14:59:16;;;;;;;;;;;;;;;;;;4926902;28;131505;-68
2022/05/15 15:01:43;;;;;;;;;;;;;;;;;;4932383;28;121608;-68
2022/05/15 15:04:09;;;;;;;;;;;;;;;;;;4931886;28;141980;-68
2022/05/15 15:06:35;;;;;;;;;;;;;;;;;;4928825;28;123382;-69
2022/05/15 15:09:02;;;;;;;;;;;;;;;;;;4934552;28;135463;-68
2022/05/15 15:11:28;;;;;;;;;;;;;;;;;;4930451;28;127850;-68
2022/05/15 15:13:55;;;;;;;;;;;;;;;;;;4920710;28;125430;-69
2022/05/15 15:16:21;;;;;;;;;;;;;;;;;;4924133;28;137093;-71
2022/05/15 15:18:47;;;;;;;;;;;;;;;;;;4928689;28;133953;-70
2022/05/15 15:21:14;;;;;;;;;;;;;;;;;;4925297;28;108793;-70
2022/05/15 15:23:42;;;;;;;;;;;;;;;;;;4926331;28;136030;-70
2022/05/15 15:26:08;;;;;;;;;;;;;;;;;;4917983;28;107977;-70
2022/05/15 15:28:34;;;;;;;;;;;;;;;;;;4929716;28;108363;-71
2022/05/15 15:31:01;;;;;;;;;;;;;;;;;;4933425;28;139315;-69
2022/05/15 15:33:27;;;;;;;;;;;;;;;;;;4924449;28;124030;-67
2022/05/15 15:35:53;;;;;;;;;;;;;;;;;;4923442;28;138701;-67
2022/05/15 15:38:20;;;;;;;;;;;;;;;;;;4928940;28;139037;-69
2022/05/15 15:40:48;;;;;;;;;;;;;;;;;;4931792;28;112458;-67
2022/05/15 15:43:14;;;;;;;;;;;;;;;;;;4939099;28;138300;-69
2022/05/15 15:45:41;;;;;;;;;;;;;;;;;;4940309;28;109398;-70
2022/05/15 15:48:09;;;;;;;;;;;;;;;;;;4921729;28;136202;-70
2022/05/15 15:50:35;;;;;;;;;;;;;;;;;;4932296;28;135703;-65
2022/05/15 15:53:02;;;;;;;;;;;;;;;;;;4925394;28;107591;-67
2022/05/15 15:55:28;;;;;;;;;;;;;;;;;;4928484;28;136559;-67
2022/05/15 15:57:55;;;;;;;;;;;;;;;;;;4929545;28;108022;-66
2022/05/15 16:00:22;;;;;;;;;;;;;;;;;;4922298;28;126044;-67
2022/05/15 16:02:48;;;;;;;;;;;;;;;;;;4923237;28;139351;-67
2022/05/15 16:05:14;;;;;;;;;;;;;;;;;;4925275;28;135790;-67
2022/05/15 16:07:41;;;;;;;;;;;;;;;;;;4935896;28;124275;-66
2022/05/15 16:10:08;;;;;;;;;;;;;;;;;;4924920;28;139908;-67
2022/05/15 16:12:34;;;;;;;;;;;;;;;;;;4936141;28;108525;-68
2022/05/15 16:15:02;;;;;;;;;;;;;;;;;;4932288;28;136872;-67
2022/05/15 16:17:28;;;;;;;;;;;;;;;;;;4956803;28;127313;-67
2022/05/15 16:19:55;;;;;;;;;;;;;;;;;;4924147;28;123810;-66
2022/05/15 16:22:21;;;;;;;;;;;;;;;;;;4935113;28;138217;-69
2022/05/15 16:24:47;;;;;;;;;;;;;;;;;;4933374;28;137179;-66
2022/05/15 16:27:13;;;;;;;;;;;;;;;;;;4926012;28;110082;-66
2022/05/15 16:29:40;;;;;;;;;;;;;;;;;;4929934;28;130155;-66
2022/05/15 16:32:06;;;;;;;;;;;;;;;;;;4926846;28;122852;-67
2022/05/15 16:34:33;;;;;;;;;;;;;;;;;;4927422;28;138991;-66
2022/05/15 16:36:59;;;;;;;;;;;;;;;;;;4932609;28;140446;-67
2022/05/15 16:39:25;;;;;;;;;;;;;;;;;;4935663;28;125681;-67
2022/05/15 16:41:51;;;;;;;;;;;;;;;;;;4925417;28;137889;-66
2022/05/15 16:44:18;;;;;;;;;;;;;;;;;;4927663;28;125802;-66
2022/05/15 16:46:44;;;;;;;;;;;;;;;;;;4941893;28;109282;-67
2022/05/15 16:49:10;;;;;;;;;;;;;;;;;;4929488;28;108577;-66
2022/05/15 16:51:37;;;;;;;;;;;;;;;;;;4919469;28;139541;-67